createdAt,value
2023-03-10T07:13:55.979Z,10.50
2023-03-10T07:16:26.889Z,9.37
2023-03-10T07:18:54.166Z,9.60
2023-03-10T07:21:22.666Z,9.40
2023-03-10T07:23:50.221Z,10.20
2023-03-10T07:26:21.225Z,9.93
2023-03-10T07:28:48.681Z,13.70
2023-03-10T07:31:17.043Z,16.10
2023-03-10T07:33:44.329Z,16.10
2023-03-10T07:36:15.234Z,14.32
2023-03-10T07:38:45.101Z,14.05
2023-03-10T07:41:21.339Z,14.07
2023-03-10T07:43:53.373Z,13.35
2023-03-10T07:46:22.550Z,11.70
2023-03-10T07:48:54.787Z,9.30
2023-03-10T07:51:22.504Z,7.83
2023-03-10T07:53:49.613Z,12.37
2023-03-10T07:56:16.988Z,12.20
2023-03-10T07:58:46.879Z,12.10
2023-03-10T08:01:20.324Z,9.80
2023-03-10T08:03:50.795Z,8.23
2023-03-10T08:06:28.683Z,8.67
2023-03-10T08:08:57.314Z,8.30
2023-03-10T08:11:27.692Z,9.30
2023-03-10T08:13:54.861Z,9.03
2023-03-10T08:16:25.334Z,9.43
2023-03-10T08:18:54.740Z,10.17
2023-03-10T08:21:23.683Z,8.93
2023-03-10T08:23:54.547Z,12.67
2023-03-10T08:26:24.373Z,12.30
2023-03-10T08:28:51.841Z,11.63
2023-03-10T08:31:21.097Z,10.43
2023-03-10T08:33:49.130Z,10.27
2023-03-10T08:36:23.380Z,9.73
2023-03-10T08:38:53.360Z,9.50
2023-03-10T08:41:50.730Z,10.73
2023-03-10T08:44:20.221Z,12.70
2023-03-10T08:46:49.960Z,12.52
2023-03-10T08:49:22.634Z,10.30
2023-03-10T08:51:50.296Z,9.00
2023-03-10T08:54:20.897Z,8.87
2023-03-10T08:56:48.788Z,9.40
2023-03-10T08:59:19.391Z,9.83
2023-03-10T09:01:47.561Z,11.57
2023-03-10T09:04:14.863Z,12.60
2023-03-10T09:06:42.267Z,13.37
2023-03-10T09:09:10.608Z,10.47
2023-03-10T09:11:41.157Z,9.93
2023-03-10T09:14:11.045Z,10.33
2023-03-10T09:16:40.433Z,11.13
2023-03-10T09:19:07.872Z,11.27
2023-03-10T09:21:35.591Z,9.50
2023-03-10T09:24:03.499Z,10.20
2023-03-10T09:26:33.501Z,9.70
2023-03-10T09:29:02.183Z,10.20
2023-03-10T09:31:34.913Z,9.77
2023-03-10T09:34:04.828Z,9.87
2023-03-10T09:36:32.845Z,10.23
2023-03-10T09:39:00.816Z,9.40
2023-03-10T09:42:08.328Z,9.27
2023-03-10T09:45:04.500Z,10.43
2023-03-10T09:48:16.140Z,9.80
2023-03-10T09:50:49.222Z,9.17
2023-03-10T09:53:34.552Z,10.70
2023-03-10T09:56:06.953Z,10.37
2023-03-10T09:58:40.486Z,10.60
2023-03-10T10:01:19.983Z,10.87
2023-03-10T10:04:01.483Z,11.33
2023-03-10T10:06:39.541Z,9.30
2023-03-10T10:09:35.456Z,12.17
2023-03-10T10:12:19.269Z,10.33
2023-03-10T10:14:56.563Z,9.90
2023-03-10T10:18:02.848Z,9.73
2023-03-10T10:20:51.130Z,8.60
2023-03-10T10:23:34.574Z,8.77
2023-03-10T10:26:25.359Z,10.17
2023-03-10T10:29:08.876Z,10.50
2023-03-10T10:31:36.332Z,10.90
2023-03-10T10:34:08.001Z,10.67
2023-03-10T10:36:55.203Z,14.10
2023-03-10T10:39:34.572Z,11.00
2023-03-10T10:42:27.985Z,9.80
2023-03-10T10:45:15.123Z,8.80
2023-03-10T10:47:51.588Z,8.80
2023-03-10T10:50:37.783Z,10.60
2023-03-10T10:53:19.213Z,7.60
2023-03-10T10:56:00.329Z,8.20
2023-03-10T10:58:37.638Z,7.53
2023-03-10T11:01:14.988Z,7.70
2023-03-10T11:03:49.200Z,7.53
2023-03-10T11:06:32.366Z,6.80
2023-03-10T11:09:28.477Z,7.63
2023-03-10T11:12:25.591Z,7.80
2023-03-10T11:15:56.343Z,8.67
2023-03-10T11:18:38.202Z,8.10
2023-03-10T11:21:14.265Z,7.90
2023-03-10T11:23:54.775Z,7.60
2023-03-10T11:26:36.767Z,6.77
2023-03-10T11:29:13.839Z,9.07
2023-03-10T11:32:07.762Z,8.43
2023-03-10T11:34:51.770Z,6.80
2023-03-10T11:38:04.710Z,6.87
2023-03-10T11:41:25.415Z,6.63
2023-03-10T11:44:11.308Z,7.27
2023-03-10T11:47:01.607Z,5.83
2023-03-10T11:49:40.408Z,5.90
2023-03-10T11:52:19.683Z,6.00
2023-03-10T11:54:56.526Z,5.67
2023-03-10T11:57:26.053Z,6.30
2023-03-10T12:00:00.476Z,6.40
2023-03-10T12:02:34.872Z,5.63
2023-03-10T12:05:16.439Z,4.77
2023-03-10T12:07:49.213Z,5.30
2023-03-10T12:10:21.984Z,5.77
2023-03-10T12:12:52.076Z,6.33
2023-03-10T12:15:47.222Z,5.87
2023-03-10T12:18:14.545Z,5.10
2023-03-10T12:20:43.955Z,6.40
2023-03-10T12:23:11.128Z,6.40
2023-03-10T12:25:40.082Z,6.20
2023-03-10T12:28:29.322Z,6.30
2023-03-10T12:31:39.293Z,7.00
2023-03-10T12:34:29.157Z,6.53
2023-03-10T12:37:15.746Z,7.33
2023-03-10T12:39:44.645Z,6.47
2023-03-10T12:42:40.501Z,7.07
2023-03-10T12:45:29.541Z,7.10
2023-03-10T12:48:26.847Z,7.43
2023-03-10T12:51:11.406Z,8.20
2023-03-10T12:54:04.499Z,8.17
2023-03-10T12:56:43.269Z,8.33
2023-03-10T12:59:29.172Z,7.73
2023-03-10T13:02:00.414Z,7.13
2023-03-10T13:04:27.976Z,7.00
2023-03-10T13:07:04.207Z,7.13
2023-03-10T13:09:43.782Z,7.37
2023-03-10T13:12:31.805Z,7.73
2023-03-10T13:15:01.216Z,8.37
2023-03-10T13:17:33.473Z,9.07
2023-03-10T13:20:17.472Z,8.13
2023-03-10T13:23:01.349Z,9.20
2023-03-10T13:25:28.717Z,8.70
2023-03-10T13:27:59.432Z,9.03
2023-03-10T13:30:30.842Z,8.40
2023-03-10T13:33:02.592Z,9.00
2023-03-10T13:35:39.311Z,9.33
2023-03-10T13:38:22.132Z,9.20
2023-03-10T13:41:03.304Z,9.53
2023-03-10T13:43:48.622Z,9.60
2023-03-10T13:49:36.360Z,9.17
2023-03-10T13:52:33.419Z,8.43
2023-03-10T13:55:18.810Z,14.00
2023-03-10T13:57:48.114Z,11.83
2023-03-10T14:00:26.290Z,10.83
2023-03-10T14:02:58.313Z,10.93
2023-03-10T14:05:48.672Z,9.47
2023-03-10T14:08:28.611Z,10.80
2023-03-10T14:11:36.027Z,10.83
2023-03-10T14:14:10.020Z,10.27
2023-03-10T14:16:56.299Z,10.83
2023-03-10T14:19:43.545Z,11.73
2023-03-10T14:22:38.155Z,10.63
2023-03-10T14:25:12.645Z,15.53
2023-03-10T14:30:44.436Z,10.17
2023-03-10T14:33:16.404Z,10.03
2023-03-10T14:35:48.365Z,10.17
2023-03-10T14:38:16.740Z,10.33
2023-03-10T14:40:56.080Z,10.57
2023-03-10T14:43:30.402Z,10.37
2023-03-10T14:46:03.927Z,13.60
2023-03-10T14:48:36.806Z,11.90
2023-03-10T14:51:04.005Z,11.17
2023-03-10T14:53:33.972Z,15.30
2023-03-10T14:56:03.095Z,12.60
2023-03-10T14:58:46.268Z,12.03
2023-03-10T15:01:16.384Z,10.67
2023-03-10T15:03:55.086Z,11.70
2023-03-10T15:06:22.501Z,12.07
2023-03-10T15:08:49.527Z,10.67
2023-03-10T15:11:35.638Z,10.33
2023-03-10T15:14:23.972Z,10.17
2023-03-10T15:16:55.568Z,8.97
2023-03-10T15:19:27.978Z,11.00
2023-03-10T15:21:58.198Z,9.23
2023-03-10T15:24:28.074Z,10.13
2023-03-10T15:26:55.075Z,9.90
2023-03-10T15:29:23.564Z,9.80
2023-03-10T15:31:50.894Z,8.13
2023-03-10T15:34:20.558Z,10.00
2023-03-10T15:36:47.849Z,10.40
2023-03-10T15:39:29.090Z,9.00
2023-03-10T15:41:58.422Z,6.00
2023-03-10T15:44:28.531Z,7.53
2023-03-10T15:46:55.978Z,9.57
2023-03-10T15:49:23.256Z,8.80
2023-03-10T15:51:50.498Z,7.83
2023-03-10T15:54:22.685Z,7.80
2023-03-10T15:56:50.124Z,8.13
2023-03-10T15:59:20.330Z,7.77
2023-03-10T16:01:47.659Z,8.13
2023-03-10T16:04:16.028Z,12.43
2023-03-10T16:06:43.128Z,13.05
2023-03-10T16:09:10.984Z,11.90
2023-03-10T16:11:38.109Z,13.13
2023-03-10T16:14:07.991Z,13.00
2023-03-10T16:16:35.354Z,14.73
2023-03-10T16:19:02.888Z,12.50
2023-03-10T16:21:34.493Z,10.47
2023-03-10T16:24:01.575Z,10.13
2023-03-10T16:26:38.467Z,11.05
2023-03-10T16:29:09.434Z,12.85
2023-03-10T16:31:38.949Z,13.00
2023-03-10T16:34:06.980Z,15.48
2023-03-10T16:36:36.822Z,18.58
2023-03-10T16:39:11.643Z,18.52
2023-03-10T16:41:39.510Z,19.83
2023-03-10T16:44:10.322Z,19.27
2023-03-10T16:46:38.810Z,19.75
2023-03-10T16:49:06.094Z,21.15
2023-03-10T16:51:42.397Z,16.93
2023-03-10T22:04:32.985Z,27.97
2023-03-10T22:07:00.801Z,24.60
2023-03-10T22:09:31.151Z,37.35
2023-03-10T22:12:01.474Z,30.10
2023-03-10T22:14:29.293Z,21.30
2023-03-10T22:16:56.850Z,25.37
2023-03-10T22:19:24.755Z,14.43
2023-03-10T22:21:52.035Z,17.73
2023-03-10T22:24:19.305Z,7.30
2023-03-10T22:26:46.521Z,25.43
2023-03-10T22:29:23.784Z,25.30
2023-03-10T22:31:56.284Z,12.97
2023-03-10T22:34:26.727Z,24.07
2023-03-10T22:36:57.012Z,17.43
2023-03-10T22:39:25.234Z,18.57
2023-03-10T22:41:52.931Z,18.33
2023-03-10T22:44:24.805Z,5.80
2023-03-10T22:46:52.226Z,23.23
2023-03-10T22:49:19.729Z,10.87
2023-03-10T22:51:47.118Z,5.77
2023-03-10T22:54:14.289Z,38.60
2023-03-10T22:56:45.053Z,24.07
2023-03-10T22:59:12.888Z,6.50
2023-03-10T23:01:40.659Z,5.77
2023-03-10T23:04:08.155Z,7.17
2023-03-10T23:06:36.042Z,5.23
2023-03-10T23:09:06.466Z,5.60
2023-03-10T23:11:41.781Z,5.93
2023-03-10T23:14:08.912Z,5.37
2023-03-10T23:16:38.392Z,6.37
2023-03-10T23:19:08.827Z,6.37
2023-03-10T23:21:36.774Z,5.13
2023-03-10T23:26:56.817Z,5.90
2023-03-10T23:29:24.099Z,5.03
2023-03-10T23:31:51.234Z,5.70
2023-03-10T23:34:18.481Z,5.83
2023-03-10T23:36:45.685Z,4.80
2023-03-10T23:39:13.620Z,5.83
2023-03-10T23:41:40.836Z,5.43
2023-03-10T23:44:08.078Z,5.00
2023-03-10T23:46:35.180Z,5.10
2023-03-10T23:49:02.235Z,5.30
2023-03-10T23:51:30.427Z,5.00
2023-03-10T23:53:57.678Z,4.80
2023-03-10T23:56:24.801Z,5.00
2023-03-10T23:58:51.897Z,5.00
